Hovedside
METAR-TAF:

METAR-TAF

Lufthavner :

Kittilä lufthavn

Kittilä, Finland

breddegrad: 67-42N, lengdegrad: 024-51E, høyde over havet: 196 m

Gjeldene værobservasjon

Denne rapporten ble laget for 26 minutter siden, klokken 10:20 UTC
Vind 3 kt fra Sør
Temperatur 13°C
Luftfuktighet 94%
Trykk 998 hPa
Sikt 10 km eller mer
Overskyet i en høyde av 500 ft
lette regnbyger,

METAR: EFKT 191020Z AUTO 19003KT 9999 -SHRA OVC005 //////CB 13/12 Q0998

Tid: 13:46 (10:46 UTC)

Varsel

Denne rapporten ble laget for 14 timer og 11 minutter siden, klokken 20:35 UTC
Varsel gyldig fra 18. klokken 21 UTC til 18. klokken 24 UTC
Vind 7 kt fra Sørøst
Sikt 10 km eller mer
Brutte skyer i en høyde av 400 ft
lette regnbyger
Midlertidig
fra 18. klokken 21 UTC til 18. klokken 24 UTC
Sikt: 6000 m
Spredte skyer i en høyde av 500 ft
Brutte skyer i en høyde av 4500 ft, Bygeskyer.
regnbyger,

TAF: EFKT 182035Z 1821/1824 13007KT 9999 -SHRA BKN004 TEMPO 1821/1824 6000 SHRA SCT005 BKN045CB

Værobservasjoner og værvarsel for over 4000 flyplasser (METAR- og TAF-rapporter).

Tilgjengelige stasjoner er representert av de røde og gule prikkene på kartet.

Hold musepekeren over prikken for å se navnet på stasjonen.

Klikk så for å se værobservasjoner og -varsler.

For å forandre kartet kan du klikke på den grønne knappen med svart kryss for å zoome inn, på den grønne knappen med strek for å zoome ut, eller på de grønne pilene for å se tilstøtende kart.


METAR-TAF: